SBSJSBSP

Guest
Details From SBSJ - Sao Jose Dos Campos
To SBSP - Sao Paulo Congonhas
Flight Number -
Tags decoded
Created
Modified
Stats Distance 73 nm / 135 km
Max Altitude 0 ft / 0 m
Waypoints 3
Social Downloads 0
Likes 0
Share VATSIM

Download

Looking for another format? Having issues loading an existing format? Contact us
Advertisement - Login to hide

Notes

Requested: SBSJ TRIGO SBSP

Route

SBSJ TRIGO SBSP

ID Type Via Altitude Latitude Longitude Leg Dist Tot Dist Heading (true) Name
O SBSJ APT - 0 ft / 0 m -23.22817˚ -45.86274˚ - 0 nm - Sao Jose Dos Campos
TRIGO FIX - 0 ft / 0 m -23.74133˚ -45.90067˚ 30 nm 30 nm 184° / 184° -
O SBSP APT - 0 ft / 0 m -23.62669˚ -46.65538˚ 42 nm 72 nm 279° / 280° Sao Paulo Congonhas

Altitude Profile

Advertisement - Login to hide

SBSJ

Details ICAO SBSJ (SJK)
Name Sao Jose Dos Campos
Region Brazil
Timezone America/Sao_Paulo (UTC-2.0)
Stats Elevation 2,120 ft / 646 m (AMSL)
Location -23.228171° -45.862738°
Runways 1
Magnetic Variation 21.709° W

METAR

SBSJ 120900Z 17006KT 5000 BR SCT014 BKN020 18/16 Q1016

Decode

TAF

TAF SBSJ 120200Z 1206/1306 16006KT 6000 BKN015TN18/1208Z TX25/1217Z TEMPO 1208/1210 5000 DZ BR BECMG 1210/1212 14010KT 9999 BKN025 BECMG 1220/1222 SCT020 RMK PGX

Decode

Departure Runways

ID Width Length Bearing (true) Bearing (mag) Surface Threshold Offset Overrun Length
15 148 ft / 45 m 8,741 ft / 2,664 m 135.13° 156.84° Asphalt 0 ft / 0 m 0 ft / 0 m
33 148 ft / 45 m 8,741 ft / 2,664 m 315.12° 336.83° Asphalt 0 ft / 0 m 0 ft / 0 m

SBSP

Details ICAO SBSP (CGH)
Name Sao Paulo Congonhas
Region Brazil
Timezone America/Sao_Paulo (UTC-2.0)
Stats Elevation 2,631 ft / 802 m (AMSL)
Location -23.626693° -46.655377°
Runways 2
Magnetic Variation 21.294° W

METAR

SBSP 120900Z 16013KT 8000 BKN006 OVC018 16/14 Q1017

Decode

TAF

TAF SBSP 120050Z 1206/1306 15010KT 9999 OVC007TX20/1216Z TN16/1305Z TEMPO 1206/1211 3000 DZ BR OVC005 BECMG 1212/1214 9999 BKN015 BECMG 1218/1220 OVC009 RMK PGF

Decode

Destination Runways

ID Width Length Bearing (true) Bearing (mag) Surface Threshold Offset Overrun Length
17L 147 ft / 45 m 4,726 ft / 1,441 m 147.28° 168.57° Asphalt 0 ft / 0 m 220 ft / 67 m
17R 147 ft / 45 m 6,406 ft / 1,953 m 147.39° 168.68° Asphalt 413 ft / 126 m 0 ft / 0 m
35L 147 ft / 45 m 6,406 ft / 1,953 m 327.38° 348.67° Asphalt 200 ft / 61 m 0 ft / 0 m
35R 147 ft / 45 m 4,726 ft / 1,441 m 327.28° 348.57° Asphalt 0 ft / 0 m 0 ft / 0 m

Approach Navaids

Runway Type Ident Frequency Range Bearing (true) Bearing (mag) Slope Elevation
17R Localiser ISP 109.30 MHz 18 nm / 33 km 147.03° 168.32° - 2,631 ft / 802 m (AMSL)
17R Glidescope ISP 109.30 MHz 10 nm / 19 km 147.38° 168.68° 2.90° 2,631 ft / 802 m (AMSL)
35L Localiser ICO 110.10 MHz 18 nm / 33 km 328.14° 349.44° - 2,631 ft / 802 m (AMSL)

Popular Alternatives